Time;durP1;ratioP1;P1;durP2;ratioP2;P2;SDS_P1;SDS_P2;PMS_P1;PMS_P2;Temp;Humidity;BMP_temperature;BMP_pressure;BME280_temperature;BME280_humidity;BME280_pressure;Samples;Min_cycle;Max_cycle;Signal;HPM_P1;HPM_P2
2023/12/14 00:00:29;;;;;;;2.22;1.48;;;22.00;53.70;;;;;;4982969;28;20034;-69
2023/12/14 00:02:54;;;;;;;2.85;1.50;;;22.00;53.80;;;;;;4982889;28;20027;-69
2023/12/14 00:05:20;;;;;;;2.60;1.40;;;21.90;53.70;;;;;;4984759;28;20022;-69
2023/12/14 00:07:46;;;;;;;2.63;1.40;;;21.90;53.70;;;;;;4980349;28;20052;-69
2023/12/14 00:10:12;;;;;;;2.20;1.35;;;21.90;53.70;;;;;;4981048;28;20381;-69
2023/12/14 00:12:38;;;;;;;3.10;1.60;;;21.90;53.70;;;;;;4982933;28;20034;-69
2023/12/14 00:15:04;;;;;;;2.45;1.30;;;21.90;53.70;;;;;;4981755;28;20037;-69
2023/12/14 00:17:30;;;;;;;1.58;1.15;;;21.90;53.70;;;;;;4981620;28;20516;-69
2023/12/14 00:19:55;;;;;;;2.35;1.40;;;21.80;53.70;;;;;;4980469;28;20031;-66
2023/12/14 00:22:21;;;;;;;2.08;1.25;;;21.80;53.70;;;;;;4978783;28;20034;-67
2023/12/14 00:24:46;;;;;;;1.92;1.30;;;21.90;53.80;;;;;;4982267;28;20050;-67
2023/12/14 00:27:12;;;;;;;2.13;1.30;;;21.80;53.70;;;;;;4982357;28;20022;-66
2023/12/14 00:29:38;;;;;;;2.55;1.30;;;21.80;53.70;;;;;;4982303;28;20085;-67
2023/12/14 00:32:04;;;;;;;1.77;1.10;;;21.80;53.70;;;;;;4982582;28;20047;-67
2023/12/14 00:34:29;;;;;;;2.40;1.45;;;21.80;53.80;;;;;;4980118;28;20027;-66
2023/12/14 00:36:55;;;;;;;2.40;1.40;;;21.80;53.80;;;;;;4995111;28;20113;-67
2023/12/14 00:39:20;;;;;;;2.03;1.23;;;21.70;53.70;;;;;;4976934;28;20458;-67
2023/12/14 00:41:46;;;;;;;2.20;1.20;;;21.80;53.80;;;;;;4979508;28;20027;-67
2023/12/14 00:44:12;;;;;;;2.05;1.23;;;21.80;53.80;;;;;;4979239;28;20058;-67
2023/12/14 00:46:37;;;;;;;2.28;1.30;;;21.80;53.80;;;;;;4982227;28;20367;-67
2023/12/14 00:49:03;;;;;;;2.35;1.30;;;21.70;53.80;;;;;;4981197;28;20031;-67
2023/12/14 00:51:28;;;;;;;2.42;1.48;;;21.70;53.80;;;;;;4979449;28;20406;-66
2023/12/14 00:53:54;;;;;;;2.10;1.50;;;21.70;53.80;;;;;;4980361;28;20081;-67
2023/12/14 00:56:20;;;;;;;2.45;1.30;;;21.70;53.80;;;;;;4980431;28;20028;-67
2023/12/14 00:58:45;;;;;;;2.13;1.30;;;21.70;53.80;;;;;;4982653;28;20038;-66
2023/12/14 01:01:11;;;;;;;2.42;1.50;;;21.70;53.80;;;;;;4978898;28;20049;-67
2023/12/14 01:03:36;;;;;;;2.45;1.40;;;21.70;53.80;;;;;;4980431;28;20080;-67
2023/12/14 01:06:02;;;;;;;2.00;1.20;;;21.70;53.90;;;;;;4981576;28;20022;-67
2023/12/14 01:08:28;;;;;;;2.47;1.48;;;21.70;53.90;;;;;;4983159;28;20510;-68
2023/12/14 01:10:53;;;;;;;1.85;1.20;;;21.70;53.90;;;;;;4980996;28;20031;-69
2023/12/14 01:13:19;;;;;;;2.55;1.30;;;21.60;54.40;;;;;;4982277;28;20039;-69
2023/12/14 01:15:44;;;;;;;2.97;1.52;;;21.60;53.80;;;;;;4981130;28;20486;-69
2023/12/14 01:18:11;;;;;;;2.58;1.40;;;21.60;53.80;;;;;;4981359;28;20084;-69
2023/12/14 01:20:36;;;;;;;2.05;1.40;;;21.60;53.90;;;;;;4994443;28;20055;-69
2023/12/14 01:23:02;;;;;;;1.75;1.10;;;21.60;54.40;;;;;;4980685;28;20499;-69
2023/12/14 01:25:27;;;;;;;2.17;1.30;;;21.60;53.90;;;;;;4979341;28;20029;-69
2023/12/14 01:27:53;;;;;;;1.90;1.20;;;21.60;53.90;;;;;;4978855;28;20483;-68
2023/12/14 01:30:19;;;;;;;2.03;1.40;;;21.60;53.90;;;;;;4980731;28;20157;-67
2023/12/14 01:32:44;;;;;;;1.77;1.25;;;21.60;53.90;;;;;;4979714;28;20167;-67
2023/12/14 01:35:10;;;;;;;2.47;1.27;;;21.60;53.90;;;;;;4995407;28;20030;-66
2023/12/14 01:37:35;;;;;;;2.15;1.10;;;21.60;54.00;;;;;;4979545;28;20495;-67
2023/12/14 01:40:01;;;;;;;1.80;1.17;;;21.50;53.90;;;;;;4979090;28;20088;-66
2023/12/14 01:42:27;;;;;;;1.48;1.10;;;21.50;53.90;;;;;;4980751;28;20031;-66
2023/12/14 01:44:53;;;;;;;1.83;1.10;;;21.50;53.90;;;;;;4979684;28;20030;-67
2023/12/14 01:47:19;;;;;;;2.00;1.20;;;21.50;53.90;;;;;;4981481;28;20541;-67
2023/12/14 01:49:44;;;;;;;1.65;1.15;;;21.50;53.90;;;;;;4981543;28;20157;-67
2023/12/14 01:52:10;;;;;;;1.40;1.02;;;21.50;54.00;;;;;;4996861;28;20209;-67
2023/12/14 01:54:35;;;;;;;1.77;1.02;;;21.50;54.00;;;;;;4980152;28;20106;-67
2023/12/14 01:57:01;;;;;;;2.83;1.33;;;21.50;54.00;;;;;;4981010;28;20039;-66
2023/12/14 01:59:27;;;;;;;1.80;1.20;;;21.50;54.00;;;;;;4981938;28;20119;-66
2023/12/14 02:01:56;;;;;;;1.95;1.20;;;21.50;54.00;;;;;;4978937;28;20439;-67
2023/12/14 02:04:24;;;;;;;2.00;1.15;;;21.40;53.90;;;;;;4980307;28;20550;-67
2023/12/14 02:06:50;;;;;;;1.65;1.17;;;21.40;53.90;;;;;;4980818;28;20110;-67
2023/12/14 02:09:15;;;;;;;1.65;1.02;;;21.50;54.00;;;;;;4980816;28;20145;-67
2023/12/14 02:11:41;;;;;;;1.90;1.17;;;21.40;53.90;;;;;;4978592;28;20029;-67
2023/12/14 02:14:09;;;;;;;2.30;1.40;;;21.40;54.00;;;;;;4979547;28;20486;-66
2023/12/14 02:16:35;;;;;;;1.95;1.33;;;21.40;54.00;;;;;;4978920;28;20360;-67
2023/12/14 02:19:00;;;;;;;1.95;1.25;;;21.40;54.00;;;;;;4979258;28;20121;-69
2023/12/14 02:21:26;;;;;;;2.28;1.30;;;21.40;54.00;;;;;;4996036;28;20027;-68
2023/12/14 02:23:52;;;;;;;2.03;1.23;;;21.40;54.00;;;;;;4979615;28;20030;-68
2023/12/14 02:26:17;;;;;;;2.00;1.25;;;21.40;54.00;;;;;;4977995;28;20019;-69
2023/12/14 02:28:43;;;;;;;1.55;1.10;;;21.30;54.00;;;;;;4981856;28;20031;-69
2023/12/14 02:31:09;;;;;;;1.80;1.27;;;21.30;54.00;;;;;;4978310;28;20145;-69
2023/12/14 02:33:34;;;;;;;1.58;1.00;;;21.40;54.00;;;;;;4979845;28;20110;-69
2023/12/14 02:36:00;;;;;;;1.42;1.00;;;21.30;54.00;;;;;;4978681;28;20043;-69
2023/12/14 02:38:26;;;;;;;1.67;1.13;;;21.30;54.00;;;;;;4977829;28;20023;-68
2023/12/14 02:40:52;;;;;;;1.88;1.20;;;21.30;54.00;;;;;;4978356;28;20033;-67
2023/12/14 02:43:18;;;;;;;2.15;1.20;;;21.30;54.00;;;;;;4980585;28;20030;-67
2023/12/14 02:45:44;;;;;;;1.67;1.10;;;21.30;54.00;;;;;;4979011;28;20448;-67
2023/12/14 02:48:10;;;;;;;1.73;1.15;;;21.30;54.10;;;;;;4978069;28;20102;-67
2023/12/14 02:50:36;;;;;;;1.80;1.10;;;21.30;54.10;;;;;;4980508;28;20019;-66
2023/12/14 02:53:01;;;;;;;1.98;1.20;;;21.30;54.10;;;;;;4978844;28;20062;-66
2023/12/14 02:55:27;;;;;;;1.67;1.10;;;21.20;54.00;;;;;;4979799;28;20034;-67
2023/12/14 02:57:52;;;;;;;1.90;1.20;;;21.30;54.50;;;;;;4994046;28;20047;-66
2023/12/14 03:00:18;;;;;;;1.90;1.20;;;21.30;54.10;;;;;;4982107;28;20066;-67
2023/12/14 03:02:44;;;;;;;1.77;1.20;;;21.30;54.10;;;;;;4984256;28;20479;-66
2023/12/14 03:05:09;;;;;;;1.98;1.20;;;21.20;54.00;;;;;;4982270;28;20126;-66
2023/12/14 03:07:35;;;;;;;2.00;1.35;;;21.30;54.10;;;;;;4983169;28;20038;-66
2023/12/14 03:10:03;;;;;;;1.38;1.02;;;21.20;54.00;;;;;;4982202;28;20470;-66
2023/12/14 03:12:28;;;;;;;1.55;1.00;;;21.20;54.00;;;;;;4983992;28;20072;-67
2023/12/14 03:14:54;;;;;;;1.52;1.10;;;21.20;54.00;;;;;;4998132;28;20479;-67
2023/12/14 03:17:20;;;;;;;1.50;1.10;;;21.20;54.00;;;;;;4985278;28;20037;-67
2023/12/14 03:19:45;;;;;;;1.70;1.10;;;21.20;54.10;;;;;;4983047;28;20114;-66
2023/12/14 03:22:11;;;;;;;1.25;0.98;;;21.20;54.10;;;;;;4980434;28;20034;-66
2023/12/14 03:24:37;;;;;;;2.08;1.25;;;21.20;54.10;;;;;;4996064;28;20019;-66
2023/12/14 03:27:03;;;;;;;1.42;1.00;;;21.20;54.10;;;;;;4982309;28;20034;-66
2023/12/14 03:29:29;;;;;;;1.25;0.95;;;21.20;54.10;;;;;;4983052;28;20031;-69
2023/12/14 03:31:58;;;;;;;1.50;1.02;;;21.10;54.10;;;;;;4984005;28;20086;-69
2023/12/14 03:34:24;;;;;;;2.03;1.20;;;21.20;54.10;;;;;;4998039;28;20026;-69
2023/12/14 03:36:50;;;;;;;1.50;1.05;;;21.20;54.60;;;;;;4982778;28;20026;-69
2023/12/14 03:39:18;;;;;;;1.23;0.93;;;21.20;54.20;;;;;;4980872;28;20023;-69
2023/12/14 03:41:44;;;;;;;2.00;1.00;;;21.10;54.10;;;;;;4983221;28;20026;-69
2023/12/14 03:44:10;;;;;;;1.33;1.00;;;21.10;54.10;;;;;;4980112;28;20031;-69
2023/12/14 03:46:36;;;;;;;1.60;1.00;;;21.10;54.10;;;;;;4983700;28;20076;-69
2023/12/14 03:49:03;;;;;;;1.98;1.10;;;21.10;54.10;;;;;;4981100;28;20027;-69
2023/12/14 03:51:28;;;;;;;1.65;0.90;;;21.10;54.60;;;;;;4998123;28;20027;-69
2023/12/14 03:53:54;;;;;;;2.00;1.10;;;21.10;54.10;;;;;;4981963;28;20471;-69
2023/12/14 03:56:20;;;;;;;1.90;1.10;;;21.10;54.10;;;;;;4981300;28;20030;-69
2023/12/14 03:58:45;;;;;;;1.20;1.00;;;21.10;54.20;;;;;;4981871;28;20038;-66
2023/12/14 04:01:21;;;;;;;1.95;1.02;;;21.10;54.20;;;;;;4981743;28;20433;-65
2023/12/14 04:03:47;;;;;;;1.52;1.02;;;21.10;54.20;;;;;;4979702;28;20085;-66
2023/12/14 04:06:13;;;;;;;1.08;0.90;;;21.10;54.20;;;;;;4983249;28;20027;-65
2023/12/14 04:08:40;;;;;;;1.73;1.15;;;21.10;54.20;;;;;;4995178;28;20061;-66
2023/12/14 04:11:05;;;;;;;1.77;1.15;;;21.00;54.10;;;;;;4978013;28;20035;-66
2023/12/14 04:13:31;;;;;;;2.03;1.17;;;21.10;54.20;;;;;;4982417;28;20038;-66
2023/12/14 04:15:57;;;;;;;1.60;1.10;;;21.00;54.10;;;;;;4980738;28;20038;-66
2023/12/14 04:18:23;;;;;;;1.98;1.30;;;21.00;54.20;;;;;;4982778;28;20037;-66
2023/12/14 04:20:48;;;;;;;1.25;0.90;;;21.00;54.20;;;;;;4980597;28;20027;-65
2023/12/14 04:23:14;;;;;;;1.20;1.02;;;21.00;54.20;;;;;;4982385;28;20110;-65
2023/12/14 04:25:40;;;;;;;1.85;1.10;;;21.00;54.20;;;;;;4980266;28;20025;-66
2023/12/14 04:28:05;;;;;;;1.23;0.98;;;21.00;54.20;;;;;;4980879;28;20050;-66
2023/12/14 04:30:31;;;;;;;1.40;1.00;;;21.00;54.70;;;;;;4982447;28;20027;-66
2023/12/14 04:32:56;;;;;;;1.52;1.10;;;21.00;54.20;;;;;;4997615;28;20058;-66
2023/12/14 04:35:22;;;;;;;1.63;0.95;;;21.00;54.20;;;;;;4981983;28;20125;-66
2023/12/14 04:37:48;;;;;;;1.20;0.90;;;21.00;54.20;;;;;;4982429;28;20497;-66
2023/12/14 04:40:14;;;;;;;1.50;0.98;;;21.00;54.30;;;;;;4982607;28;20493;-65
2023/12/14 04:42:39;;;;;;;1.05;0.90;;;21.00;54.30;;;;;;4979646;28;20034;-66
2023/12/14 04:45:06;;;;;;;1.15;0.88;;;21.00;54.30;;;;;;4981521;28;20022;-66
2023/12/14 04:47:31;;;;;;;1.55;0.90;;;20.90;54.30;;;;;;4981351;28;20142;-67
2023/12/14 04:49:57;;;;;;;1.70;1.10;;;21.00;54.30;;;;;;4982070;28;20551;-66
2023/12/14 04:52:23;;;;;;;1.15;0.85;;;20.90;54.30;;;;;;4981936;28;20506;-67
2023/12/14 04:54:48;;;;;;;1.60;1.00;;;20.90;54.30;;;;;;4980559;28;20137;-65
2023/12/14 04:57:14;;;;;;;1.13;0.82;;;20.90;54.30;;;;;;4981609;28;20034;-65
2023/12/14 04:59:42;;;;;;;1.42;1.00;;;20.90;54.40;;;;;;4982649;28;20548;-66
2023/12/14 05:02:07;;;;;;;0.93;0.80;;;20.90;54.40;;;;;;4979692;28;20419;-66
2023/12/14 05:04:33;;;;;;;1.05;0.90;;;20.90;54.40;;;;;;4979065;28;20045;-65
2023/12/14 05:06:58;;;;;;;1.13;0.88;;;20.90;54.40;;;;;;4980026;28;20037;-66
2023/12/14 05:09:24;;;;;;;1.10;0.90;;;20.90;54.90;;;;;;4981554;28;20037;-65
2023/12/14 05:11:49;;;;;;;1.55;0.90;;;20.90;54.40;;;;;;4979210;28;20033;-66
2023/12/14 05:14:15;;;;;;;1.50;0.90;;;20.90;54.40;;;;;;4980357;28;20081;-66
2023/12/14 05:16:41;;;;;;;1.30;0.90;;;20.90;54.40;;;;;;4979646;28;20035;-65
2023/12/14 05:19:06;;;;;;;0.93;0.73;;;20.90;54.40;;;;;;4980422;28;20137;-66
2023/12/14 05:21:32;;;;;;;0.90;0.70;;;20.90;54.40;;;;;;4978825;28;20027;-66
2023/12/14 05:23:57;;;;;;;1.23;0.93;;;20.80;54.40;;;;;;4979437;28;20030;-66
2023/12/14 05:26:23;;;;;;;1.67;0.90;;;20.80;54.40;;;;;;4979199;28;20030;-66
2023/12/14 05:28:49;;;;;;;1.00;0.80;;;20.80;54.40;;;;;;4978871;28;20022;-66
2023/12/14 05:31:14;;;;;;;1.90;1.08;;;20.80;54.50;;;;;;4976013;28;20034;-65
2023/12/14 05:33:40;;;;;;;1.20;0.90;;;20.80;54.50;;;;;;4993110;28;20070;-65
2023/12/14 05:36:10;;;;;;;1.38;0.90;;;20.80;54.50;;;;;;4980419;28;20023;-67
2023/12/14 05:38:39;;;;;;;1.58;0.80;;;20.80;54.50;;;;;;4982203;28;20363;-66
2023/12/14 05:41:05;;;;;;;1.13;0.80;;;20.80;54.50;;;;;;4978703;28;20030;-66
2023/12/14 05:43:31;;;;;;;1.35;0.88;;;20.80;54.50;;;;;;4981383;28;20113;-67
2023/12/14 05:45:57;;;;;;;0.98;0.80;;;20.80;54.50;;;;;;4981485;28;20022;-67
2023/12/14 05:48:22;;;;;;;1.67;0.90;;;20.80;54.50;;;;;;4982746;28;20057;-66
2023/12/14 05:50:48;;;;;;;1.45;1.00;;;20.80;54.50;;;;;;4980474;28;20035;-65
2023/12/14 05:53:14;;;;;;;1.65;1.00;;;20.80;54.60;;;;;;4981311;28;20033;-65
2023/12/14 05:55:40;;;;;;;1.15;0.80;;;20.70;54.50;;;;;;4980891;28;20035;-65
2023/12/14 05:58:07;;;;;;;1.30;0.80;;;20.80;54.60;;;;;;4979000;28;20037;-65
2023/12/14 06:00:34;;;;;;;1.35;1.00;;;20.80;54.60;;;;;;4981379;28;20506;-65
2023/12/14 06:03:00;;;;;;;1.17;0.70;;;20.70;54.50;;;;;;4980889;28;20018;-66
2023/12/14 06:05:26;;;;;;;1.52;1.15;;;20.70;54.60;;;;;;4980617;28;20038;-66
2023/12/14 06:07:51;;;;;;;1.35;0.80;;;20.70;54.60;;;;;;4976626;28;20027;-65
2023/12/14 06:10:17;;;;;;;1.00;0.80;;;20.70;54.60;;;;;;4979637;28;20093;-64
2023/12/14 06:12:43;;;;;;;1.02;0.75;;;20.70;54.70;;;;;;4978679;28;20023;-65
2023/12/14 06:15:09;;;;;;;1.05;0.80;;;20.70;54.90;;;;;;4979823;28;20077;-64
2023/12/14 06:17:37;;;;;;;1.33;0.90;;;20.70;54.90;;;;;;4979458;28;20031;-65
2023/12/14 06:20:04;;;;;;;1.27;0.80;;;20.70;54.90;;;;;;4995641;28;20033;-67
2023/12/14 06:22:29;;;;;;;1.20;0.82;;;20.70;54.80;;;;;;4979026;28;20482;-67
2023/12/14 06:24:55;;;;;;;1.05;0.80;;;20.70;54.80;;;;;;4993398;28;20026;-67
2023/12/14 06:27:26;;;;;;;1.27;0.80;;;20.70;54.80;;;;;;4979984;28;20034;-67
2023/12/14 06:29:52;;;;;;;1.80;0.98;;;20.70;54.80;;;;;;4979189;28;20026;-67
2023/12/14 06:32:17;;;;;;;1.60;0.90;;;20.70;54.80;;;;;;4982731;28;20038;-67
2023/12/14 06:34:43;;;;;;;1.30;0.70;;;20.70;54.70;;;;;;4979922;28;20035;-67
2023/12/14 06:37:09;;;;;;;1.08;0.80;;;20.70;54.70;;;;;;4997003;28;20481;-67
2023/12/14 06:39:35;;;;;;;1.83;0.90;;;20.70;54.80;;;;;;4980532;28;20042;-67
2023/12/14 06:42:01;;;;;;;1.20;0.90;;;20.70;54.70;;;;;;4984371;28;20026;-67
2023/12/14 06:44:27;;;;;;;1.30;0.88;;;20.70;54.70;;;;;;4983601;28;20081;-67
2023/12/14 06:46:54;;;;;;;1.08;0.80;;;20.70;54.80;;;;;;4998025;28;20057;-66
2023/12/14 06:49:20;;;;;;;1.60;0.90;;;20.70;54.80;;;;;;4984884;28;20030;-67
2023/12/14 06:51:46;;;;;;;1.42;0.80;;;20.70;54.80;;;;;;4982764;28;20027;-67
2023/12/14 06:54:12;;;;;;;0.82;0.60;;;20.70;54.80;;;;;;4982871;28;20030;-66
2023/12/14 06:56:38;;;;;;;1.10;0.80;;;20.70;54.80;;;;;;4981576;28;20031;-66
2023/12/14 06:59:03;;;;;;;1.30;0.80;;;20.70;55.30;;;;;;4997479;28;20184;-67
2023/12/14 07:01:29;;;;;;;1.45;0.90;;;20.70;54.80;;;;;;4998532;28;20062;-67
2023/12/14 07:03:54;;;;;;;1.55;0.90;;;20.70;54.80;;;;;;4983643;28;20546;-67
2023/12/14 07:06:21;;;;;;;0.80;0.68;;;20.70;54.80;;;;;;4981457;28;20027;-67
2023/12/14 07:08:47;;;;;;;1.00;0.80;;;20.70;54.80;;;;;;4983162;28;20462;-67
2023/12/14 07:11:13;;;;;;;1.30;0.90;;;20.60;54.80;;;;;;4981585;28;20019;-67
2023/12/14 07:13:44;;;;;;;1.65;0.85;;;20.60;54.80;;;;;;4981575;28;20042;-67
2023/12/14 07:16:10;;;;;;;1.30;0.70;;;20.60;54.80;;;;;;4996363;28;20426;-67
2023/12/14 07:18:42;;;;;;;1.17;0.90;;;20.60;54.80;;;;;;4983706;28;20026;-67
2023/12/14 07:21:08;;;;;;;1.02;0.73;;;20.60;54.80;;;;;;4982367;28;20088;-67
2023/12/14 07:23:35;;;;;;;0.90;0.80;;;20.60;55.30;;;;;;4981711;28;20071;-67
2023/12/14 07:26:01;;;;;;;1.60;0.77;;;20.60;54.80;;;;;;4982672;28;20076;-67
2023/12/14 07:28:27;;;;;;;1.40;0.80;;;20.60;54.80;;;;;;4981834;28;20105;-66
2023/12/14 07:30:53;;;;;;;1.60;0.90;;;20.60;54.80;;;;;;4981862;28;20496;-66
2023/12/14 07:33:19;;;;;;;1.13;0.70;;;20.60;54.80;;;;;;4981277;28;20034;-66
2023/12/14 07:35:45;;;;;;;1.73;0.90;;;20.60;54.80;;;;;;4982788;28;20035;-67
2023/12/14 07:38:10;;;;;;;1.05;0.80;;;20.60;54.80;;;;;;4982571;28;20058;-66
2023/12/14 07:40:36;;;;;;;1.40;0.90;;;20.60;54.80;;;;;;4980270;28;20133;-66
2023/12/14 07:43:02;;;;;;;1.63;1.00;;;20.60;54.80;;;;;;4980646;28;20035;-67
2023/12/14 07:45:28;;;;;;;1.42;0.77;;;20.60;54.80;;;;;;4978490;28;20034;-67
2023/12/14 07:47:53;;;;;;;1.65;0.77;;;20.60;54.80;;;;;;4981090;28;20046;-66
2023/12/14 07:50:19;;;;;;;1.23;0.70;;;20.60;54.80;;;;;;4985384;28;20522;-67
2023/12/14 07:52:45;;;;;;;1.02;0.80;;;20.60;54.80;;;;;;4982589;28;20034;-66
2023/12/14 07:55:13;;;;;;;1.48;0.80;;;20.60;54.80;;;;;;4982324;28;20041;-67
2023/12/14 07:57:38;;;;;;;0.85;0.73;;;20.60;54.90;;;;;;4981379;28;20053;-66
2023/12/14 08:00:05;;;;;;;0.80;0.73;;;20.60;54.90;;;;;;4981888;28;20034;-66
2023/12/14 08:02:31;;;;;;;1.20;0.80;;;20.60;54.90;;;;;;4982367;28;20109;-67
2023/12/14 08:04:56;;;;;;;2.38;1.10;;;20.50;54.80;;;;;;4982815;28;20027;-67
2023/12/14 08:07:22;;;;;;;1.38;0.80;;;20.50;54.80;;;;;;4980069;28;20022;-66
2023/12/14 08:09:47;;;;;;;1.15;0.75;;;20.60;54.80;;;;;;4981093;28;20557;-68
2023/12/14 08:12:13;;;;;;;1.95;0.80;;;20.60;54.90;;;;;;4982406;28;20030;-68
2023/12/14 08:14:43;;;;;;;0.90;0.75;;;20.60;54.90;;;;;;4980101;28;20081;-68
2023/12/14 08:17:09;;;;;;;1.10;0.70;;;20.50;54.80;;;;;;4980616;28;20030;-68
2023/12/14 08:19:34;;;;;;;1.38;0.80;;;20.50;54.80;;;;;;4981467;28;20092;-68
2023/12/14 08:22:00;;;;;;;1.23;0.80;;;20.60;54.90;;;;;;4982509;28;20061;-68
2023/12/14 08:24:25;;;;;;;1.08;0.75;;;20.50;54.90;;;;;;4983547;28;20035;-68
2023/12/14 08:26:51;;;;;;;0.95;0.73;;;20.50;54.90;;;;;;4981695;28;20478;-68
2023/12/14 08:29:16;;;;;;;0.70;0.70;;;20.50;54.80;;;;;;4977709;28;20030;-68
2023/12/14 08:31:42;;;;;;;1.13;0.73;;;20.50;54.80;;;;;;4981007;28;20101;-68
2023/12/14 08:34:08;;;;;;;1.33;0.70;;;20.50;54.90;;;;;;4981481;28;20035;-68
2023/12/14 08:36:33;;;;;;;2.17;1.30;;;20.50;54.90;;;;;;4983376;28;20499;-68
2023/12/14 08:38:59;;;;;;;1.05;0.90;;;20.50;54.90;;;;;;4996358;28;20037;-65
2023/12/14 08:41:25;;;;;;;1.40;0.90;;;20.50;54.90;;;;;;4995977;28;20470;-65
2023/12/14 08:43:50;;;;;;;1.48;0.80;;;20.50;54.90;;;;;;4980217;28;20031;-66
2023/12/14 08:46:16;;;;;;;1.67;0.80;;;20.50;54.90;;;;;;4979762;28;20487;-65
2023/12/14 08:48:42;;;;;;;1.25;0.70;;;20.50;54.90;;;;;;4979535;28;20081;-67
2023/12/14 08:51:07;;;;;;;1.67;0.80;;;20.50;54.90;;;;;;4980997;28;20880;-67
2023/12/14 08:53:33;;;;;;;1.33;0.90;;;20.50;54.90;;;;;;4980431;28;20106;-67
2023/12/14 08:55:58;;;;;;;1.55;0.85;;;20.50;54.90;;;;;;4980287;28;20491;-67
2023/12/14 08:58:24;;;;;;;1.25;0.80;;;20.50;54.90;;;;;;4982661;28;20065;-67
2023/12/14 09:00:52;;;;;;;1.55;0.90;;;20.50;54.90;;;;;;4980597;28;20034;-67
2023/12/14 09:03:19;;;;;;;1.17;0.70;;;20.50;55.00;;;;;;4996034;28;20038;-67
2023/12/14 09:05:45;;;;;;;0.93;0.80;;;20.50;54.90;;;;;;4979817;28;20030;-67
2023/12/14 09:08:11;;;;;;;1.25;0.80;;;20.50;54.90;;;;;;4994147;28;20038;-67
2023/12/14 09:10:40;;;;;;;1.20;0.80;;;20.50;54.90;;;;;;4982476;28;20018;-67
2023/12/14 09:13:06;;;;;;;1.33;0.90;;;20.40;54.90;;;;;;4980424;28;20031;-67
2023/12/14 09:15:32;;;;;;;1.13;0.82;;;20.40;54.90;;;;;;4979290;28;20034;-68
2023/12/14 09:17:57;;;;;;;1.08;0.80;;;20.50;54.90;;;;;;4979510;28;20034;-67
2023/12/14 09:20:23;;;;;;;1.05;0.77;;;20.40;54.90;;;;;;4980566;28;20556;-65
2023/12/14 09:22:49;;;;;;;1.00;0.75;;;20.40;54.90;;;;;;4979804;28;20038;-65
2023/12/14 09:25:15;;;;;;;1.35;0.77;;;20.40;54.90;;;;;;4982758;28;20097;-65
2023/12/14 09:27:41;;;;;;;1.00;0.80;;;20.40;54.90;;;;;;4979929;28;20526;-64
2023/12/14 09:30:07;;;;;;;1.52;0.80;;;20.40;54.90;;;;;;4981774;28;20015;-64
2023/12/14 09:32:33;;;;;;;1.20;0.80;;;20.40;55.00;;;;;;4981239;28;20114;-65
2023/12/14 09:34:59;;;;;;;1.05;0.80;;;20.40;55.00;;;;;;4980263;28;20120;-65
2023/12/14 09:37:24;;;;;;;1.10;0.70;;;20.40;55.00;;;;;;4980732;28;20041;-64
2023/12/14 09:39:50;;;;;;;1.15;0.80;;;20.40;54.90;;;;;;4980343;28;20050;-65
2023/12/14 09:42:20;;;;;;;1.10;0.80;;;20.40;54.90;;;;;;4980848;28;20081;-65
2023/12/14 09:44:46;;;;;;;;;;;20.40;54.90;;;;;;4981451;28;20042;-65
2023/12/14 09:47:12;;;;;;;1.00;0.80;;;20.40;55.00;;;;;;4979633;28;19977;-65
2023/12/14 09:49:40;;;;;;;1.25;0.80;;;20.40;55.00;;;;;;4980646;28;21151;-65
2023/12/14 09:52:06;;;;;;;1.25;0.80;;;20.40;55.00;;;;;;4980949;28;20038;-64
2023/12/14 09:54:32;;;;;;;1.20;0.82;;;20.40;55.00;;;;;;4979200;28;20467;-64
2023/12/14 09:56:58;;;;;;;1.45;0.90;;;20.40;55.00;;;;;;4983191;28;20053;-65
2023/12/14 09:59:23;;;;;;;1.23;0.77;;;20.40;55.00;;;;;;4980294;28;20042;-66
2023/12/14 10:01:49;;;;;;;1.42;0.85;;;20.40;55.00;;;;;;4980401;28;20034;-65
2023/12/14 10:04:17;;;;;;;1.40;0.80;;;20.40;55.00;;;;;;4978564;28;20019;-64
2023/12/14 10:06:45;;;;;;;1.75;0.80;;;20.30;55.00;;;;;;4979199;28;20019;-65
2023/12/14 10:09:13;;;;;;;2.22;0.90;;;20.40;55.00;;;;;;4979598;28;20556;-65
2023/12/14 10:11:40;;;;;;;1.35;0.75;;;20.40;55.00;;;;;;4982676;28;20015;-65
2023/12/14 10:14:23;;;;;;;1.35;0.80;;;20.40;55.00;;;;;;4982717;28;20402;-65
2023/12/14 10:16:49;;;;;;;1.00;0.70;;;20.40;55.00;;;;;;4998271;28;20034;-65
2023/12/14 10:19:17;;;;;;;1.08;0.82;;;20.30;54.90;;;;;;4981579;28;20030;-64
2023/12/14 10:21:42;;;;;;;1.13;0.80;;;20.30;55.00;;;;;;4983716;28;20034;-65
2023/12/14 10:24:08;;;;;;;1.35;0.80;;;20.30;55.00;;;;;;4983291;28;20384;-66
2023/12/14 10:26:33;;;;;;;1.42;0.90;;;20.30;55.00;;;;;;4985383;28;20145;-65
2023/12/14 10:28:59;;;;;;;1.10;0.80;;;20.30;55.00;;;;;;4983065;28;20054;-66
2023/12/14 10:31:26;;;;;;;0.95;0.75;;;20.30;55.00;;;;;;4983735;28;20027;-68
2023/12/14 10:33:51;;;;;;;1.30;0.85;;;20.30;55.00;;;;;;4981464;28;20055;-68
2023/12/14 10:36:24;;;;;;;1.42;0.80;;;20.30;55.00;;;;;;4984370;28;20045;-68
2023/12/14 10:38:52;;;;;;;1.58;0.80;;;20.30;55.00;;;;;;4999843;28;20100;-68
2023/12/14 10:41:18;;;;;;;1.30;0.90;;;20.30;55.00;;;;;;4984231;28;20518;-68
2023/12/14 10:43:44;;;;;;;0.85;0.70;;;20.30;55.00;;;;;;4982073;28;20026;-68
2023/12/14 10:46:10;;;;;;;1.00;0.80;;;20.30;55.10;;;;;;4983223;28;20073;-68
2023/12/14 10:48:37;;;;;;;1.73;1.00;;;20.30;55.10;;;;;;4982946;28;20030;-68
2023/12/14 10:51:05;;;;;;;1.45;1.00;;;20.30;55.10;;;;;;4983653;28;20482;-67
2023/12/14 10:53:31;;;;;;;1.00;0.80;;;20.30;55.10;;;;;;4982709;28;20096;-68
2023/12/14 10:56:00;;;;;;;0.70;0.70;;;20.30;55.10;;;;;;4982192;28;20034;-68
2023/12/14 10:58:26;;;;;;;1.50;0.83;;;20.30;55.10;;;;;;4982364;28;20034;-68
2023/12/14 11:01:03;;;;;;;1.20;0.80;;;20.30;55.10;;;;;;4982374;28;20038;-68
2023/12/14 11:03:35;;;;;;;0.95;0.70;;;20.30;55.10;;;;;;4983370;28;20038;-68
2023/12/14 11:06:01;;;;;;;1.35;0.80;;;20.30;55.10;;;;;;4982176;28;20450;-68
2023/12/14 11:08:27;;;;;;;1.08;0.70;;;20.30;55.10;;;;;;4982626;28;20027;-68
2023/12/14 11:10:59;;;;;;;0.95;0.77;;;20.30;55.10;;;;;;4982304;28;20023;-68
2023/12/14 11:13:26;;;;;;;1.33;0.70;;;20.30;55.20;;;;;;4981327;28;20046;-68
2023/12/14 11:15:52;;;;;;;1.33;0.82;;;20.20;55.10;;;;;;4982132;28;20557;-68
2023/12/14 11:18:18;;;;;;;1.38;0.70;;;20.30;55.10;;;;;;4996304;28;20130;-68
2023/12/14 11:20:50;;;;;;;1.00;0.70;;;20.30;55.10;;;;;;4980285;28;20491;-67
2023/12/14 11:23:25;;;;;;;1.02;0.85;;;20.30;55.10;;;;;;4982582;28;20026;-67
2023/12/14 11:26:09;;;;;;;1.80;0.80;;;20.30;55.10;;;;;;4983495;28;20394;-67
2023/12/14 11:28:42;;;;;;;1.55;0.82;;;20.30;55.10;;;;;;4981284;28;20061;-67
2023/12/14 11:31:10;;;;;;;1.27;0.80;;;20.30;55.10;;;;;;4981894;28;20356;-67
2023/12/14 11:33:36;;;;;;;0.98;0.70;;;20.30;55.10;;;;;;4982175;28;20631;-67
2023/12/14 11:36:03;;;;;;;1.75;0.80;;;20.30;55.10;;;;;;4998945;28;20035;-67
2023/12/14 11:38:29;;;;;;;1.70;0.80;;;20.30;55.20;;;;;;4982791;28;20034;-67
2023/12/14 11:40:55;;;;;;;1.50;0.80;;;20.20;55.10;;;;;;4981009;28;20031;-68
2023/12/14 11:43:21;;;;;;;0.95;0.70;;;20.30;55.20;;;;;;4980036;28;20037;-68
2023/12/14 11:45:47;;;;;;;1.25;0.80;;;20.20;55.10;;;;;;4980231;28;20487;-68
2023/12/14 11:48:13;;;;;;;0.93;0.73;;;20.30;55.20;;;;;;4981752;28;20583;-68
2023/12/14 11:50:41;;;;;;;1.70;0.90;;;20.30;55.60;;;;;;4982136;28;20035;-67
2023/12/14 11:53:07;;;;;;;1.38;0.77;;;20.30;55.10;;;;;;4982946;28;20034;-68
2023/12/14 11:55:35;;;;;;;1.10;0.70;;;20.30;55.10;;;;;;4981597;28;20470;-68
2023/12/14 11:58:01;;;;;;;1.10;0.75;;;20.30;55.20;;;;;;4997014;28;20406;-68
2023/12/14 12:00:28;;;;;;;0.85;0.70;;;20.30;55.10;;;;;;4980611;28;20106;-68
2023/12/14 12:03:16;;;;;;;1.20;0.70;;;20.20;55.20;;;;;;4983204;28;20062;-68
2023/12/14 12:05:46;;;;;;;1.25;0.90;;;20.20;55.10;;;;;;4982064;28;20474;-68
2023/12/14 12:08:12;;;;;;;0.93;0.70;;;20.30;55.10;;;;;;4981893;28;20037;-68
2023/12/14 12:10:39;;;;;;;1.35;0.90;;;20.30;55.10;;;;;;4976347;28;20066;-68
2023/12/14 12:13:07;;;;;;;0.90;0.77;;;20.20;55.20;;;;;;4981202;28;20050;-68
2023/12/14 12:15:35;;;;;;;1.08;0.80;;;20.20;55.10;;;;;;4980743;28;20093;-68
2023/12/14 12:18:06;;;;;;;1.20;0.70;;;20.20;55.10;;;;;;4980623;28;20031;-67
2023/12/14 12:20:32;;;;;;;0.93;0.70;;;20.20;55.20;;;;;;4980533;28;20026;-67
2023/12/14 12:22:58;;;;;;;0.70;0.70;;;20.20;55.20;;;;;;4981326;28;20034;-68
2023/12/14 12:25:24;;;;;;;1.23;0.80;;;20.20;55.10;;;;;;4980862;28;20030;-68
2023/12/14 12:27:49;;;;;;;1.10;0.70;;;20.20;55.10;;;;;;4983084;28;20421;-68
2023/12/14 12:30:15;;;;;;;1.35;0.82;;;20.20;55.20;;;;;;4980630;28;20200;-68
2023/12/14 12:32:41;;;;;;;0.90;0.70;;;20.20;55.20;;;;;;4979165;28;20053;-68
2023/12/14 12:35:07;;;;;;;1.13;0.73;;;20.20;55.10;;;;;;4980967;28;20030;-68
2023/12/14 12:37:33;;;;;;;1.02;0.80;;;20.20;55.20;;;;;;4980748;28;20113;-68
2023/12/14 12:39:59;;;;;;;1.08;0.60;;;20.20;55.20;;;;;;4979347;28;20133;-67
2023/12/14 12:42:25;;;;;;;0.95;0.60;;;20.20;55.20;;;;;;4982435;28;20152;-67